sensor_id;sensor_type;location;lat;lon;timestamp;P1;durP1;ratioP1;P2;durP2;ratioP2
19095;SDS011;9680;52.520;13.332;2024-03-08T00:00:17;34.03;;;12.13;;
19095;SDS011;9680;52.520;13.332;2024-03-08T00:02:44;32.60;;;11.20;;
19095;SDS011;9680;52.520;13.332;2024-03-08T00:05:14;29.17;;;11.83;;
19095;SDS011;9680;52.520;13.332;2024-03-08T00:07:41;33.57;;;11.67;;
19095;SDS011;9680;52.520;13.332;2024-03-08T00:10:10;31.93;;;11.40;;
19095;SDS011;9680;52.520;13.332;2024-03-08T00:12:38;28.33;;;10.67;;
19095;SDS011;9680;52.520;13.332;2024-03-08T00:15:07;34.03;;;10.97;;
19095;SDS011;9680;52.520;13.332;2024-03-08T00:17:34;41.67;;;12.10;;
19095;SDS011;9680;52.520;13.332;2024-03-08T00:20:01;38.13;;;12.10;;
19095;SDS011;9680;52.520;13.332;2024-03-08T00:22:30;33.20;;;12.10;;
19095;SDS011;9680;52.520;13.332;2024-03-08T00:24:57;34.77;;;12.20;;
19095;SDS011;9680;52.520;13.332;2024-03-08T00:27:24;40.10;;;12.13;;
19095;SDS011;9680;52.520;13.332;2024-03-08T00:29:50;34.43;;;12.17;;
19095;SDS011;9680;52.520;13.332;2024-03-08T00:32:17;32.07;;;11.63;;
19095;SDS011;9680;52.520;13.332;2024-03-08T00:34:44;33.23;;;11.67;;
19095;SDS011;9680;52.520;13.332;2024-03-08T00:37:11;33.03;;;11.17;;
19095;SDS011;9680;52.520;13.332;2024-03-08T00:39:46;33.87;;;11.63;;
19095;SDS011;9680;52.520;13.332;2024-03-08T00:42:14;30.43;;;12.07;;
19095;SDS011;9680;52.520;13.332;2024-03-08T00:44:49;31.17;;;10.80;;
19095;SDS011;9680;52.520;13.332;2024-03-08T00:47:19;27.80;;;10.50;;
19095;SDS011;9680;52.520;13.332;2024-03-08T00:49:45;33.47;;;11.77;;
19095;SDS011;9680;52.520;13.332;2024-03-08T00:52:13;30.50;;;11.37;;
19095;SDS011;9680;52.520;13.332;2024-03-08T00:54:41;31.77;;;11.17;;
19095;SDS011;9680;52.520;13.332;2024-03-08T00:57:10;28.93;;;10.87;;
19095;SDS011;9680;52.520;13.332;2024-03-08T00:59:37;29.43;;;10.63;;
19095;SDS011;9680;52.520;13.332;2024-03-08T01:02:04;35.03;;;11.13;;
19095;SDS011;9680;52.520;13.332;2024-03-08T01:04:31;29.53;;;10.97;;
19095;SDS011;9680;52.520;13.332;2024-03-08T01:06:58;29.37;;;11.10;;
19095;SDS011;9680;52.520;13.332;2024-03-08T01:09:25;29.93;;;11.27;;
19095;SDS011;9680;52.520;13.332;2024-03-08T01:11:53;32.87;;;11.47;;
19095;SDS011;9680;52.520;13.332;2024-03-08T01:14:22;34.27;;;11.20;;
19095;SDS011;9680;52.520;13.332;2024-03-08T01:16:50;27.43;;;10.80;;
19095;SDS011;9680;52.520;13.332;2024-03-08T01:19:18;31.87;;;11.43;;
19095;SDS011;9680;52.520;13.332;2024-03-08T01:21:44;30.57;;;11.63;;
19095;SDS011;9680;52.520;13.332;2024-03-08T01:24:11;30.07;;;10.63;;
19095;SDS011;9680;52.520;13.332;2024-03-08T01:26:38;31.53;;;11.67;;
19095;SDS011;9680;52.520;13.332;2024-03-08T01:29:07;36.07;;;11.43;;
19095;SDS011;9680;52.520;13.332;2024-03-08T01:31:35;31.27;;;11.60;;
19095;SDS011;9680;52.520;13.332;2024-03-08T01:34:02;33.50;;;11.47;;
19095;SDS011;9680;52.520;13.332;2024-03-08T01:36:29;29.77;;;11.17;;
19095;SDS011;9680;52.520;13.332;2024-03-08T01:38:56;30.97;;;11.40;;
19095;SDS011;9680;52.520;13.332;2024-03-08T01:41:23;30.27;;;10.97;;
19095;SDS011;9680;52.520;13.332;2024-03-08T01:43:50;27.60;;;11.03;;
19095;SDS011;9680;52.520;13.332;2024-03-08T01:46:19;31.00;;;11.40;;
19095;SDS011;9680;52.520;13.332;2024-03-08T01:48:49;31.67;;;11.63;;
19095;SDS011;9680;52.520;13.332;2024-03-08T01:51:16;31.67;;;11.80;;
19095;SDS011;9680;52.520;13.332;2024-03-08T01:53:43;31.63;;;11.10;;
19095;SDS011;9680;52.520;13.332;2024-03-08T01:56:13;33.87;;;11.83;;
19095;SDS011;9680;52.520;13.332;2024-03-08T01:58:40;37.60;;;11.70;;
19095;SDS011;9680;52.520;13.332;2024-03-08T02:01:09;31.60;;;11.00;;
19095;SDS011;9680;52.520;13.332;2024-03-08T02:03:37;32.93;;;11.23;;
19095;SDS011;9680;52.520;13.332;2024-03-08T02:06:05;30.77;;;11.37;;
19095;SDS011;9680;52.520;13.332;2024-03-08T02:08:35;31.20;;;10.57;;
19095;SDS011;9680;52.520;13.332;2024-03-08T02:11:01;25.50;;;9.90;;
19095;SDS011;9680;52.520;13.332;2024-03-08T02:13:29;31.50;;;10.63;;
19095;SDS011;9680;52.520;13.332;2024-03-08T02:15:57;29.00;;;10.53;;
19095;SDS011;9680;52.520;13.332;2024-03-08T02:18:25;34.33;;;10.80;;
19095;SDS011;9680;52.520;13.332;2024-03-08T02:20:55;30.03;;;10.10;;
19095;SDS011;9680;52.520;13.332;2024-03-08T02:23:22;30.80;;;11.97;;
19095;SDS011;9680;52.520;13.332;2024-03-08T02:25:50;35.00;;;11.50;;
19095;SDS011;9680;52.520;13.332;2024-03-08T02:28:17;27.57;;;10.37;;
19095;SDS011;9680;52.520;13.332;2024-03-08T02:30:44;31.40;;;10.60;;
19095;SDS011;9680;52.520;13.332;2024-03-08T02:33:12;29.40;;;10.73;;
19095;SDS011;9680;52.520;13.332;2024-03-08T02:35:41;37.90;;;11.03;;
19095;SDS011;9680;52.520;13.332;2024-03-08T02:38:12;31.20;;;11.63;;
19095;SDS011;9680;52.520;13.332;2024-03-08T02:40:41;32.63;;;11.60;;
19095;SDS011;9680;52.520;13.332;2024-03-08T02:43:08;28.23;;;10.30;;
19095;SDS011;9680;52.520;13.332;2024-03-08T02:45:34;32.57;;;11.43;;
19095;SDS011;9680;52.520;13.332;2024-03-08T02:48:01;31.57;;;10.70;;
19095;SDS011;9680;52.520;13.332;2024-03-08T02:50:28;37.07;;;11.97;;
19095;SDS011;9680;52.520;13.332;2024-03-08T02:52:55;31.00;;;11.50;;
19095;SDS011;9680;52.520;13.332;2024-03-08T02:55:23;28.93;;;11.00;;
19095;SDS011;9680;52.520;13.332;2024-03-08T02:57:51;32.70;;;10.97;;
19095;SDS011;9680;52.520;13.332;2024-03-08T03:00:19;30.13;;;11.03;;
19095;SDS011;9680;52.520;13.332;2024-03-08T03:02:48;34.00;;;11.10;;
19095;SDS011;9680;52.520;13.332;2024-03-08T03:05:17;31.87;;;10.87;;
19095;SDS011;9680;52.520;13.332;2024-03-08T03:07:43;30.70;;;11.33;;
19095;SDS011;9680;52.520;13.332;2024-03-08T03:10:10;31.37;;;10.63;;
19095;SDS011;9680;52.520;13.332;2024-03-08T03:12:38;30.40;;;10.87;;
19095;SDS011;9680;52.520;13.332;2024-03-08T03:15:05;34.33;;;11.93;;
19095;SDS011;9680;52.520;13.332;2024-03-08T03:17:33;32.37;;;10.57;;
19095;SDS011;9680;52.520;13.332;2024-03-08T03:19:59;31.90;;;11.07;;
19095;SDS011;9680;52.520;13.332;2024-03-08T03:22:29;36.27;;;11.47;;
19095;SDS011;9680;52.520;13.332;2024-03-08T03:24:55;33.57;;;11.17;;
19095;SDS011;9680;52.520;13.332;2024-03-08T03:27:23;30.73;;;11.00;;
19095;SDS011;9680;52.520;13.332;2024-03-08T03:29:51;36.03;;;11.77;;
19095;SDS011;9680;52.520;13.332;2024-03-08T03:32:17;34.90;;;11.43;;
19095;SDS011;9680;52.520;13.332;2024-03-08T03:34:44;34.30;;;11.80;;
19095;SDS011;9680;52.520;13.332;2024-03-08T03:37:11;40.27;;;12.30;;
19095;SDS011;9680;52.520;13.332;2024-03-08T03:39:38;32.30;;;11.33;;
19095;SDS011;9680;52.520;13.332;2024-03-08T03:42:13;32.87;;;10.83;;
19095;SDS011;9680;52.520;13.332;2024-03-08T03:44:41;38.97;;;11.43;;
19095;SDS011;9680;52.520;13.332;2024-03-08T03:47:09;40.87;;;10.70;;
19095;SDS011;9680;52.520;13.332;2024-03-08T03:49:36;35.00;;;12.57;;
19095;SDS011;9680;52.520;13.332;2024-03-08T03:52:03;34.07;;;11.13;;
19095;SDS011;9680;52.520;13.332;2024-03-08T03:54:30;38.30;;;12.40;;
19095;SDS011;9680;52.520;13.332;2024-03-08T03:56:58;32.77;;;11.33;;
19095;SDS011;9680;52.520;13.332;2024-03-08T03:59:26;38.37;;;11.20;;
19095;SDS011;9680;52.520;13.332;2024-03-08T04:01:52;32.07;;;11.23;;
19095;SDS011;9680;52.520;13.332;2024-03-08T04:04:21;35.67;;;11.17;;
19095;SDS011;9680;52.520;13.332;2024-03-08T04:06:49;36.47;;;11.97;;
19095;SDS011;9680;52.520;13.332;2024-03-08T04:09:16;35.03;;;12.73;;
19095;SDS011;9680;52.520;13.332;2024-03-08T04:11:44;35.60;;;12.20;;
19095;SDS011;9680;52.520;13.332;2024-03-08T04:14:10;34.67;;;11.60;;
19095;SDS011;9680;52.520;13.332;2024-03-08T04:16:37;38.13;;;12.27;;
19095;SDS011;9680;52.520;13.332;2024-03-08T04:19:04;31.90;;;12.00;;
19095;SDS011;9680;52.520;13.332;2024-03-08T04:21:31;52.83;;;11.83;;
19095;SDS011;9680;52.520;13.332;2024-03-08T04:23:58;35.37;;;12.63;;
19095;SDS011;9680;52.520;13.332;2024-03-08T04:26:25;35.60;;;12.00;;
19095;SDS011;9680;52.520;13.332;2024-03-08T04:28:52;41.80;;;13.50;;
19095;SDS011;9680;52.520;13.332;2024-03-08T04:31:18;35.27;;;11.60;;
19095;SDS011;9680;52.520;13.332;2024-03-08T04:33:46;33.63;;;12.07;;
19095;SDS011;9680;52.520;13.332;2024-03-08T04:36:13;34.20;;;11.97;;
19095;SDS011;9680;52.520;13.332;2024-03-08T04:38:41;34.27;;;12.03;;
19095;SDS011;9680;52.520;13.332;2024-03-08T04:41:08;40.67;;;12.47;;
19095;SDS011;9680;52.520;13.332;2024-03-08T04:43:35;35.87;;;12.10;;
19095;SDS011;9680;52.520;13.332;2024-03-08T04:46:01;36.60;;;12.20;;
19095;SDS011;9680;52.520;13.332;2024-03-08T04:48:29;35.70;;;11.53;;
19095;SDS011;9680;52.520;13.332;2024-03-08T04:50:55;41.30;;;13.37;;
19095;SDS011;9680;52.520;13.332;2024-03-08T04:53:22;34.70;;;12.53;;
19095;SDS011;9680;52.520;13.332;2024-03-08T04:55:50;37.67;;;12.07;;
19095;SDS011;9680;52.520;13.332;2024-03-08T04:58:16;39.23;;;13.70;;
19095;SDS011;9680;52.520;13.332;2024-03-08T05:00:43;40.37;;;12.90;;
19095;SDS011;9680;52.520;13.332;2024-03-08T05:03:10;33.27;;;11.83;;
19095;SDS011;9680;52.520;13.332;2024-03-08T05:05:36;35.23;;;12.37;;
19095;SDS011;9680;52.520;13.332;2024-03-08T05:08:04;39.97;;;12.73;;
19095;SDS011;9680;52.520;13.332;2024-03-08T05:10:31;40.30;;;13.30;;
19095;SDS011;9680;52.520;13.332;2024-03-08T05:12:59;42.37;;;13.87;;
19095;SDS011;9680;52.520;13.332;2024-03-08T05:15:26;36.43;;;12.53;;
19095;SDS011;9680;52.520;13.332;2024-03-08T05:17:52;40.37;;;12.70;;
19095;SDS011;9680;52.520;13.332;2024-03-08T05:20:21;36.17;;;12.73;;
19095;SDS011;9680;52.520;13.332;2024-03-08T05:22:47;36.77;;;12.60;;
19095;SDS011;9680;52.520;13.332;2024-03-08T05:25:14;34.57;;;12.53;;
19095;SDS011;9680;52.520;13.332;2024-03-08T05:27:40;37.80;;;12.97;;
19095;SDS011;9680;52.520;13.332;2024-03-08T05:30:09;37.07;;;13.33;;
19095;SDS011;9680;52.520;13.332;2024-03-08T05:32:40;42.00;;;12.80;;
19095;SDS011;9680;52.520;13.332;2024-03-08T05:35:09;45.30;;;13.20;;
19095;SDS011;9680;52.520;13.332;2024-03-08T05:37:37;33.77;;;12.43;;
19095;SDS011;9680;52.520;13.332;2024-03-08T05:40:04;43.60;;;14.00;;
19095;SDS011;9680;52.520;13.332;2024-03-08T05:42:34;36.87;;;12.47;;
19095;SDS011;9680;52.520;13.332;2024-03-08T05:45:01;40.70;;;13.67;;
19095;SDS011;9680;52.520;13.332;2024-03-08T05:47:29;41.40;;;13.93;;
19095;SDS011;9680;52.520;13.332;2024-03-08T05:49:56;46.20;;;14.80;;
19095;SDS011;9680;52.520;13.332;2024-03-08T05:52:22;41.70;;;13.07;;
19095;SDS011;9680;52.520;13.332;2024-03-08T05:54:50;33.97;;;12.63;;
19095;SDS011;9680;52.520;13.332;2024-03-08T05:57:17;38.87;;;12.63;;
19095;SDS011;9680;52.520;13.332;2024-03-08T05:59:44;45.87;;;14.27;;
19095;SDS011;9680;52.520;13.332;2024-03-08T06:02:11;38.60;;;13.47;;
19095;SDS011;9680;52.520;13.332;2024-03-08T06:04:39;44.13;;;14.77;;
19095;SDS011;9680;52.520;13.332;2024-03-08T06:07:05;41.10;;;14.07;;
19095;SDS011;9680;52.520;13.332;2024-03-08T06:09:37;43.27;;;13.83;;
19095;SDS011;9680;52.520;13.332;2024-03-08T06:12:04;42.03;;;14.63;;
19095;SDS011;9680;52.520;13.332;2024-03-08T06:14:32;38.20;;;14.00;;
19095;SDS011;9680;52.520;13.332;2024-03-08T06:16:58;38.80;;;13.17;;
19095;SDS011;9680;52.520;13.332;2024-03-08T06:19:25;35.83;;;13.10;;
19095;SDS011;9680;52.520;13.332;2024-03-08T06:21:53;38.67;;;13.53;;
19095;SDS011;9680;52.520;13.332;2024-03-08T06:24:20;41.03;;;13.93;;
19095;SDS011;9680;52.520;13.332;2024-03-08T06:26:46;40.50;;;14.07;;
19095;SDS011;9680;52.520;13.332;2024-03-08T06:29:13;39.73;;;13.23;;
19095;SDS011;9680;52.520;13.332;2024-03-08T06:31:40;38.03;;;12.97;;
19095;SDS011;9680;52.520;13.332;2024-03-08T06:34:07;40.90;;;14.13;;
19095;SDS011;9680;52.520;13.332;2024-03-08T06:36:33;33.70;;;12.10;;
19095;SDS011;9680;52.520;13.332;2024-03-08T06:39:04;41.50;;;13.93;;
19095;SDS011;9680;52.520;13.332;2024-03-08T06:41:34;41.63;;;13.87;;
19095;SDS011;9680;52.520;13.332;2024-03-08T06:44:01;37.50;;;13.40;;
19095;SDS011;9680;52.520;13.332;2024-03-08T06:46:29;38.67;;;12.97;;
19095;SDS011;9680;52.520;13.332;2024-03-08T06:48:55;40.57;;;13.67;;
19095;SDS011;9680;52.520;13.332;2024-03-08T06:51:22;36.53;;;13.50;;
19095;SDS011;9680;52.520;13.332;2024-03-08T06:53:49;40.03;;;13.07;;
19095;SDS011;9680;52.520;13.332;2024-03-08T06:56:19;36.27;;;12.57;;
19095;SDS011;9680;52.520;13.332;2024-03-08T06:58:46;42.50;;;13.40;;
19095;SDS011;9680;52.520;13.332;2024-03-08T07:01:13;43.37;;;14.57;;
19095;SDS011;9680;52.520;13.332;2024-03-08T07:03:41;39.40;;;13.87;;
19095;SDS011;9680;52.520;13.332;2024-03-08T07:06:09;35.20;;;12.77;;
19095;SDS011;9680;52.520;13.332;2024-03-08T07:08:36;39.17;;;14.60;;
19095;SDS011;9680;52.520;13.332;2024-03-08T07:11:02;42.70;;;13.83;;
19095;SDS011;9680;52.520;13.332;2024-03-08T07:13:31;34.67;;;12.50;;
19095;SDS011;9680;52.520;13.332;2024-03-08T07:15:57;38.50;;;13.43;;
19095;SDS011;9680;52.520;13.332;2024-03-08T07:18:26;42.47;;;13.90;;
19095;SDS011;9680;52.520;13.332;2024-03-08T07:20:55;40.57;;;13.93;;
19095;SDS011;9680;52.520;13.332;2024-03-08T07:23:21;37.23;;;12.67;;
19095;SDS011;9680;52.520;13.332;2024-03-08T07:26:02;45.90;;;13.50;;
19095;SDS011;9680;52.520;13.332;2024-03-08T07:28:31;44.80;;;13.77;;
19095;SDS011;9680;52.520;13.332;2024-03-08T07:30:57;38.53;;;13.00;;
19095;SDS011;9680;52.520;13.332;2024-03-08T07:33:46;36.40;;;12.73;;
19095;SDS011;9680;52.520;13.332;2024-03-08T07:36:15;35.73;;;12.77;;
19095;SDS011;9680;52.520;13.332;2024-03-08T07:38:42;31.83;;;12.23;;
19095;SDS011;9680;52.520;13.332;2024-03-08T07:41:08;39.57;;;12.73;;
19095;SDS011;9680;52.520;13.332;2024-03-08T07:43:36;33.17;;;12.20;;
19095;SDS011;9680;52.520;13.332;2024-03-08T07:46:03;36.17;;;12.47;;
19095;SDS011;9680;52.520;13.332;2024-03-08T07:48:30;35.27;;;12.67;;
19095;SDS011;9680;52.520;13.332;2024-03-08T07:50:56;30.00;;;11.20;;
19095;SDS011;9680;52.520;13.332;2024-03-08T07:53:23;34.03;;;11.67;;
19095;SDS011;9680;52.520;13.332;2024-03-08T07:55:50;35.97;;;11.63;;
19095;SDS011;9680;52.520;13.332;2024-03-08T07:58:19;38.57;;;12.73;;
19095;SDS011;9680;52.520;13.332;2024-03-08T08:00:47;35.70;;;13.70;;
19095;SDS011;9680;52.520;13.332;2024-03-08T08:03:14;39.77;;;12.87;;
19095;SDS011;9680;52.520;13.332;2024-03-08T08:05:41;35.83;;;12.67;;
19095;SDS011;9680;52.520;13.332;2024-03-08T08:08:07;38.00;;;12.70;;
19095;SDS011;9680;52.520;13.332;2024-03-08T08:10:35;33.30;;;12.27;;
19095;SDS011;9680;52.520;13.332;2024-03-08T08:13:02;32.67;;;12.37;;
19095;SDS011;9680;52.520;13.332;2024-03-08T08:15:30;37.33;;;12.93;;
19095;SDS011;9680;52.520;13.332;2024-03-08T08:18:00;38.43;;;12.77;;
19095;SDS011;9680;52.520;13.332;2024-03-08T08:20:28;35.87;;;12.70;;
19095;SDS011;9680;52.520;13.332;2024-03-08T08:22:54;42.57;;;13.23;;
19095;SDS011;9680;52.520;13.332;2024-03-08T08:25:21;40.23;;;12.63;;
19095;SDS011;9680;52.520;13.332;2024-03-08T08:27:49;34.23;;;12.47;;
19095;SDS011;9680;52.520;13.332;2024-03-08T08:30:16;35.60;;;12.13;;
19095;SDS011;9680;52.520;13.332;2024-03-08T08:32:43;36.70;;;11.93;;
19095;SDS011;9680;52.520;13.332;2024-03-08T08:35:11;32.50;;;12.13;;
19095;SDS011;9680;52.520;13.332;2024-03-08T08:37:38;34.03;;;12.33;;
19095;SDS011;9680;52.520;13.332;2024-03-08T08:40:05;34.17;;;12.37;;
19095;SDS011;9680;52.520;13.332;2024-03-08T08:42:35;28.40;;;11.10;;
19095;SDS011;9680;52.520;13.332;2024-03-08T08:45:03;28.13;;;11.40;;
19095;SDS011;9680;52.520;13.332;2024-03-08T08:47:33;31.80;;;11.07;;
19095;SDS011;9680;52.520;13.332;2024-03-08T08:50:00;31.37;;;11.50;;
19095;SDS011;9680;52.520;13.332;2024-03-08T08:52:29;26.73;;;10.43;;
19095;SDS011;9680;52.520;13.332;2024-03-08T08:54:55;33.60;;;11.80;;
19095;SDS011;9680;52.520;13.332;2024-03-08T08:57:22;31.60;;;11.57;;
19095;SDS011;9680;52.520;13.332;2024-03-08T08:59:49;32.17;;;11.70;;
19095;SDS011;9680;52.520;13.332;2024-03-08T09:02:16;30.13;;;11.53;;
19095;SDS011;9680;52.520;13.332;2024-03-08T09:04:45;31.80;;;12.13;;
19095;SDS011;9680;52.520;13.332;2024-03-08T09:07:13;34.43;;;12.17;;
19095;SDS011;9680;52.520;13.332;2024-03-08T09:09:41;32.63;;;12.83;;
19095;SDS011;9680;52.520;13.332;2024-03-08T09:12:08;35.43;;;12.70;;
19095;SDS011;9680;52.520;13.332;2024-03-08T09:14:37;33.33;;;12.73;;
19095;SDS011;9680;52.520;13.332;2024-03-08T09:17:04;33.53;;;12.73;;
19095;SDS011;9680;52.520;13.332;2024-03-08T09:19:31;35.47;;;12.87;;
19095;SDS011;9680;52.520;13.332;2024-03-08T09:21:58;37.57;;;12.77;;
19095;SDS011;9680;52.520;13.332;2024-03-08T09:24:24;37.43;;;13.10;;
19095;SDS011;9680;52.520;13.332;2024-03-08T09:26:52;36.70;;;13.07;;
19095;SDS011;9680;52.520;13.332;2024-03-08T09:29:19;31.57;;;12.37;;
19095;SDS011;9680;52.520;13.332;2024-03-08T09:31:45;34.23;;;13.70;;
19095;SDS011;9680;52.520;13.332;2024-03-08T09:34:12;35.73;;;13.03;;
19095;SDS011;9680;52.520;13.332;2024-03-08T09:36:38;36.90;;;12.13;;
19095;SDS011;9680;52.520;13.332;2024-03-08T09:39:06;37.13;;;13.03;;
19095;SDS011;9680;52.520;13.332;2024-03-08T09:41:33;36.10;;;12.80;;
19095;SDS011;9680;52.520;13.332;2024-03-08T09:44:01;30.33;;;11.77;;
19095;SDS011;9680;52.520;13.332;2024-03-08T09:46:30;36.53;;;12.63;;
19095;SDS011;9680;52.520;13.332;2024-03-08T09:48:56;35.43;;;13.07;;
19095;SDS011;9680;52.520;13.332;2024-03-08T09:51:27;32.77;;;13.10;;
19095;SDS011;9680;52.520;13.332;2024-03-08T09:53:56;33.43;;;12.90;;
19095;SDS011;9680;52.520;13.332;2024-03-08T09:56:23;33.07;;;12.37;;
19095;SDS011;9680;52.520;13.332;2024-03-08T09:58:49;36.90;;;13.03;;
19095;SDS011;9680;52.520;13.332;2024-03-08T10:01:46;31.63;;;12.37;;
19095;SDS011;9680;52.520;13.332;2024-03-08T10:04:13;30.53;;;11.83;;
19095;SDS011;9680;52.520;13.332;2024-03-08T10:06:39;31.37;;;12.47;;
19095;SDS011;9680;52.520;13.332;2024-03-08T10:09:06;30.63;;;11.77;;
19095;SDS011;9680;52.520;13.332;2024-03-08T10:11:33;29.63;;;11.60;;
19095;SDS011;9680;52.520;13.332;2024-03-08T10:14:00;30.83;;;12.00;;
19095;SDS011;9680;52.520;13.332;2024-03-08T10:16:27;34.03;;;11.77;;
19095;SDS011;9680;52.520;13.332;2024-03-08T10:18:56;28.83;;;11.57;;
19095;SDS011;9680;52.520;13.332;2024-03-08T10:21:23;28.93;;;12.00;;
19095;SDS011;9680;52.520;13.332;2024-03-08T10:23:50;29.03;;;12.03;;
19095;SDS011;9680;52.520;13.332;2024-03-08T10:26:17;26.70;;;10.80;;
19095;SDS011;9680;52.520;13.332;2024-03-08T10:28:46;33.33;;;11.47;;
19095;SDS011;9680;52.520;13.332;2024-03-08T10:31:14;31.30;;;12.27;;
19095;SDS011;9680;52.520;13.332;2024-03-08T10:33:41;31.57;;;11.73;;
19095;SDS011;9680;52.520;13.332;2024-03-08T10:36:09;29.83;;;11.60;;
19095;SDS011;9680;52.520;13.332;2024-03-08T10:38:38;27.20;;;11.20;;
19095;SDS011;9680;52.520;13.332;2024-03-08T10:41:07;28.37;;;11.07;;
19095;SDS011;9680;52.520;13.332;2024-03-08T10:43:40;29.83;;;11.67;;
19095;SDS011;9680;52.520;13.332;2024-03-08T10:46:29;28.50;;;12.23;;
19095;SDS011;9680;52.520;13.332;2024-03-08T10:48:58;28.53;;;11.13;;
19095;SDS011;9680;52.520;13.332;2024-03-08T10:51:30;29.47;;;10.77;;
19095;SDS011;9680;52.520;13.332;2024-03-08T10:53:58;28.87;;;11.13;;
19095;SDS011;9680;52.520;13.332;2024-03-08T10:56:28;26.83;;;10.80;;
19095;SDS011;9680;52.520;13.332;2024-03-08T10:58:55;29.10;;;11.23;;
19095;SDS011;9680;52.520;13.332;2024-03-08T11:01:23;25.90;;;10.23;;
19095;SDS011;9680;52.520;13.332;2024-03-08T11:03:51;28.90;;;10.07;;
19095;SDS011;9680;52.520;13.332;2024-03-08T11:06:19;25.13;;;9.80;;
19095;SDS011;9680;52.520;13.332;2024-03-08T11:08:51;25.77;;;9.60;;
19095;SDS011;9680;52.520;13.332;2024-03-08T11:11:23;27.77;;;9.90;;
19095;SDS011;9680;52.520;13.332;2024-03-08T11:13:55;22.70;;;9.23;;
19095;SDS011;9680;52.520;13.332;2024-03-08T11:16:38;27.73;;;10.17;;
19095;SDS011;9680;52.520;13.332;2024-03-08T11:22:02;24.63;;;9.37;;
19095;SDS011;9680;52.520;13.332;2024-03-08T11:24:40;29.47;;;10.30;;
19095;SDS011;9680;52.520;13.332;2024-03-08T11:27:07;23.30;;;9.70;;
19095;SDS011;9680;52.520;13.332;2024-03-08T11:29:37;28.40;;;9.70;;
19095;SDS011;9680;52.520;13.332;2024-03-08T11:32:08;32.63;;;10.23;;
19095;SDS011;9680;52.520;13.332;2024-03-08T11:34:36;26.63;;;10.03;;
19095;SDS011;9680;52.520;13.332;2024-03-08T11:37:04;24.07;;;9.87;;
19095;SDS011;9680;52.520;13.332;2024-03-08T11:39:35;22.33;;;9.40;;
19095;SDS011;9680;52.520;13.332;2024-03-08T11:42:04;30.13;;;11.77;;
19095;SDS011;9680;52.520;13.332;2024-03-08T11:44:31;25.67;;;10.50;;
19095;SDS011;9680;52.520;13.332;2024-03-08T11:46:58;23.80;;;9.77;;
19095;SDS011;9680;52.520;13.332;2024-03-08T11:49:25;28.17;;;9.87;;
19095;SDS011;9680;52.520;13.332;2024-03-08T11:51:52;26.80;;;10.23;;
19095;SDS011;9680;52.520;13.332;2024-03-08T11:54:19;23.50;;;9.67;;
19095;SDS011;9680;52.520;13.332;2024-03-08T11:56:46;23.30;;;9.50;;
19095;SDS011;9680;52.520;13.332;2024-03-08T11:59:14;26.43;;;9.30;;
19095;SDS011;9680;52.520;13.332;2024-03-08T12:01:42;23.63;;;9.50;;
19095;SDS011;9680;52.520;13.332;2024-03-08T12:04:11;25.80;;;9.57;;
19095;SDS011;9680;52.520;13.332;2024-03-08T12:06:39;20.50;;;8.90;;
19095;SDS011;9680;52.520;13.332;2024-03-08T12:09:10;24.33;;;9.33;;
19095;SDS011;9680;52.520;13.332;2024-03-08T12:11:38;25.20;;;9.50;;
19095;SDS011;9680;52.520;13.332;2024-03-08T12:14:05;21.63;;;9.27;;
19095;SDS011;9680;52.520;13.332;2024-03-08T12:16:34;24.20;;;9.20;;
19095;SDS011;9680;52.520;13.332;2024-03-08T12:19:02;25.20;;;10.20;;
19095;SDS011;9680;52.520;13.332;2024-03-08T12:21:31;28.93;;;10.57;;
19095;SDS011;9680;52.520;13.332;2024-03-08T12:24:03;25.80;;;10.83;;
19095;SDS011;9680;52.520;13.332;2024-03-08T12:26:34;28.70;;;11.27;;
19095;SDS011;9680;52.520;13.332;2024-03-08T12:29:15;23.97;;;10.07;;
19095;SDS011;9680;52.520;13.332;2024-03-08T12:31:49;25.93;;;10.73;;
19095;SDS011;9680;52.520;13.332;2024-03-08T12:34:18;26.17;;;10.13;;
19095;SDS011;9680;52.520;13.332;2024-03-08T12:36:45;25.23;;;10.47;;
19095;SDS011;9680;52.520;13.332;2024-03-08T12:39:13;25.83;;;9.90;;
19095;SDS011;9680;52.520;13.332;2024-03-08T12:41:42;27.70;;;10.20;;
19095;SDS011;9680;52.520;13.332;2024-03-08T12:44:09;26.67;;;10.37;;
19095;SDS011;9680;52.520;13.332;2024-03-08T12:46:37;27.03;;;10.27;;
19095;SDS011;9680;52.520;13.332;2024-03-08T12:49:07;29.43;;;11.60;;
19095;SDS011;9680;52.520;13.332;2024-03-08T12:51:37;29.37;;;11.47;;
19095;SDS011;9680;52.520;13.332;2024-03-08T12:54:04;25.70;;;9.77;;
19095;SDS011;9680;52.520;13.332;2024-03-08T12:56:32;27.80;;;9.97;;
19095;SDS011;9680;52.520;13.332;2024-03-08T12:59:03;27.20;;;10.50;;
19095;SDS011;9680;52.520;13.332;2024-03-08T13:01:31;25.27;;;10.43;;
19095;SDS011;9680;52.520;13.332;2024-03-08T13:03:58;26.87;;;10.73;;
19095;SDS011;9680;52.520;13.332;2024-03-08T13:06:26;30.80;;;10.30;;
19095;SDS011;9680;52.520;13.332;2024-03-08T13:08:54;26.70;;;10.10;;
19095;SDS011;9680;52.520;13.332;2024-03-08T13:11:21;26.40;;;10.40;;
19095;SDS011;9680;52.520;13.332;2024-03-08T13:13:48;26.40;;;10.53;;
19095;SDS011;9680;52.520;13.332;2024-03-08T13:16:15;27.17;;;10.63;;
19095;SDS011;9680;52.520;13.332;2024-03-08T13:18:44;27.30;;;10.67;;
19095;SDS011;9680;52.520;13.332;2024-03-08T13:21:11;29.03;;;9.87;;
19095;SDS011;9680;52.520;13.332;2024-03-08T13:23:41;26.30;;;9.33;;
19095;SDS011;9680;52.520;13.332;2024-03-08T13:26:11;23.47;;;9.53;;
19095;SDS011;9680;52.520;13.332;2024-03-08T13:28:40;22.77;;;9.53;;
19095;SDS011;9680;52.520;13.332;2024-03-08T13:31:07;25.07;;;9.93;;
19095;SDS011;9680;52.520;13.332;2024-03-08T13:33:35;27.33;;;10.17;;
19095;SDS011;9680;52.520;13.332;2024-03-08T13:36:04;25.37;;;9.97;;
19095;SDS011;9680;52.520;13.332;2024-03-08T13:38:31;26.80;;;10.17;;
19095;SDS011;9680;52.520;13.332;2024-03-08T13:41:00;24.87;;;9.77;;
19095;SDS011;9680;52.520;13.332;2024-03-08T13:43:28;27.60;;;10.80;;
19095;SDS011;9680;52.520;13.332;2024-03-08T13:45:57;25.33;;;9.60;;
19095;SDS011;9680;52.520;13.332;2024-03-08T13:48:24;29.50;;;9.50;;
19095;SDS011;9680;52.520;13.332;2024-03-08T13:50:50;24.27;;;10.03;;
19095;SDS011;9680;52.520;13.332;2024-03-08T13:53:17;21.23;;;9.30;;
19095;SDS011;9680;52.520;13.332;2024-03-08T13:55:44;24.50;;;9.20;;
19095;SDS011;9680;52.520;13.332;2024-03-08T13:58:12;22.40;;;9.50;;
19095;SDS011;9680;52.520;13.332;2024-03-08T14:00:39;22.03;;;9.53;;
19095;SDS011;9680;52.520;13.332;2024-03-08T14:03:08;24.33;;;9.80;;
19095;SDS011;9680;52.520;13.332;2024-03-08T14:05:38;24.07;;;8.97;;
19095;SDS011;9680;52.520;13.332;2024-03-08T14:08:05;21.17;;;9.00;;
19095;SDS011;9680;52.520;13.332;2024-03-08T14:10:32;24.60;;;9.40;;
19095;SDS011;9680;52.520;13.332;2024-03-08T14:12:59;25.43;;;10.13;;
19095;SDS011;9680;52.520;13.332;2024-03-08T14:15:31;23.33;;;9.67;;
19095;SDS011;9680;52.520;13.332;2024-03-08T14:17:57;24.00;;;9.47;;
19095;SDS011;9680;52.520;13.332;2024-03-08T14:20:24;24.23;;;9.53;;
19095;SDS011;9680;52.520;13.332;2024-03-08T14:22:51;23.47;;;9.33;;
19095;SDS011;9680;52.520;13.332;2024-03-08T14:25:18;21.57;;;8.63;;
19095;SDS011;9680;52.520;13.332;2024-03-08T14:27:45;20.07;;;8.77;;
19095;SDS011;9680;52.520;13.332;2024-03-08T14:30:11;20.83;;;8.23;;